sensor_id;sensor_type;location;lat;lon;timestamp;P1;durP1;ratioP1;P2;durP2;ratioP2
11064;SDS011;5585;52.530;7.320;2023-04-24T00:00:23;0.70;;;0.70;;
11064;SDS011;5585;52.530;7.320;2023-04-24T00:02:50;1.15;;;1.05;;
11064;SDS011;5585;52.530;7.320;2023-04-24T00:05:17;1.20;;;1.02;;
11064;SDS011;5585;52.530;7.320;2023-04-24T00:07:44;1.05;;;1.00;;
11064;SDS011;5585;52.530;7.320;2023-04-24T00:10:12;1.60;;;1.20;;
11064;SDS011;5585;52.530;7.320;2023-04-24T00:12:38;1.63;;;1.17;;
11064;SDS011;5585;52.530;7.320;2023-04-24T00:15:05;1.38;;;1.27;;
11064;SDS011;5585;52.530;7.320;2023-04-24T00:17:32;1.85;;;1.60;;
11064;SDS011;5585;52.530;7.320;2023-04-24T00:19:59;1.60;;;1.50;;
11064;SDS011;5585;52.530;7.320;2023-04-24T00:22:28;1.00;;;0.98;;
11064;SDS011;5585;52.530;7.320;2023-04-24T00:24:54;1.40;;;1.30;;
11064;SDS011;5585;52.530;7.320;2023-04-24T00:27:23;1.40;;;1.30;;
11064;SDS011;5585;52.530;7.320;2023-04-24T00:29:49;1.60;;;1.45;;
11064;SDS011;5585;52.530;7.320;2023-04-24T00:32:16;1.52;;;1.38;;
11064;SDS011;5585;52.530;7.320;2023-04-24T00:34:43;1.30;;;1.20;;
11064;SDS011;5585;52.530;7.320;2023-04-24T00:37:09;1.60;;;1.50;;
11064;SDS011;5585;52.530;7.320;2023-04-24T00:39:36;1.73;;;1.60;;
11064;SDS011;5585;52.530;7.320;2023-04-24T00:42:03;1.45;;;1.35;;
11064;SDS011;5585;52.530;7.320;2023-04-24T00:44:32;1.70;;;1.60;;
11064;SDS011;5585;52.530;7.320;2023-04-24T00:46:59;2.15;;;1.40;;
11064;SDS011;5585;52.530;7.320;2023-04-24T00:49:26;1.90;;;1.70;;
11064;SDS011;5585;52.530;7.320;2023-04-24T00:51:59;1.70;;;1.60;;
11064;SDS011;5585;52.530;7.320;2023-04-24T00:54:27;2.00;;;1.80;;
11064;SDS011;5585;52.530;7.320;2023-04-24T00:56:53;2.20;;;1.98;;
11064;SDS011;5585;52.530;7.320;2023-04-24T00:59:20;2.00;;;1.73;;
11064;SDS011;5585;52.530;7.320;2023-04-24T01:01:48;2.00;;;1.90;;
11064;SDS011;5585;52.530;7.320;2023-04-24T01:04:14;1.92;;;1.83;;
11064;SDS011;5585;52.530;7.320;2023-04-24T01:06:43;1.80;;;1.70;;
11064;SDS011;5585;52.530;7.320;2023-04-24T01:09:10;2.25;;;1.95;;
11064;SDS011;5585;52.530;7.320;2023-04-24T01:11:38;2.20;;;2.00;;
11064;SDS011;5585;52.530;7.320;2023-04-24T01:14:06;1.80;;;1.70;;
11064;SDS011;5585;52.530;7.320;2023-04-24T01:16:33;2.58;;;1.95;;
11064;SDS011;5585;52.530;7.320;2023-04-24T01:19:01;1.90;;;1.80;;
11064;SDS011;5585;52.530;7.320;2023-04-24T01:21:27;2.40;;;2.20;;
11064;SDS011;5585;52.530;7.320;2023-04-24T01:23:57;2.15;;;2.00;;
11064;SDS011;5585;52.530;7.320;2023-04-24T01:26:23;2.50;;;2.30;;
11064;SDS011;5585;52.530;7.320;2023-04-24T01:28:50;3.30;;;2.80;;
11064;SDS011;5585;52.530;7.320;2023-04-24T01:31:17;4.07;;;2.75;;
11064;SDS011;5585;52.530;7.320;2023-04-24T01:33:44;2.83;;;2.63;;
11064;SDS011;5585;52.530;7.320;2023-04-24T01:36:10;4.65;;;3.00;;
11064;SDS011;5585;52.530;7.320;2023-04-24T01:38:37;3.22;;;2.92;;
11064;SDS011;5585;52.530;7.320;2023-04-24T01:41:05;3.60;;;3.30;;
11064;SDS011;5585;52.530;7.320;2023-04-24T01:43:32;3.38;;;3.08;;
11064;SDS011;5585;52.530;7.320;2023-04-24T01:45:58;3.20;;;3.00;;
11064;SDS011;5585;52.530;7.320;2023-04-24T01:48:28;3.22;;;2.92;;
11064;SDS011;5585;52.530;7.320;2023-04-24T01:50:55;3.67;;;3.38;;
11064;SDS011;5585;52.530;7.320;2023-04-24T01:53:22;4.35;;;3.95;;
11064;SDS011;5585;52.530;7.320;2023-04-24T01:55:49;4.05;;;3.65;;
11064;SDS011;5585;52.530;7.320;2023-04-24T01:58:17;4.38;;;4.00;;
11064;SDS011;5585;52.530;7.320;2023-04-24T02:00:44;4.30;;;3.85;;
11064;SDS011;5585;52.530;7.320;2023-04-24T02:03:10;5.10;;;4.70;;
11064;SDS011;5585;52.530;7.320;2023-04-24T02:05:37;4.93;;;4.53;;
11064;SDS011;5585;52.530;7.320;2023-04-24T02:08:04;5.70;;;5.20;;
11064;SDS011;5585;52.530;7.320;2023-04-24T02:10:31;4.85;;;4.45;;
11064;SDS011;5585;52.530;7.320;2023-04-24T02:12:57;5.63;;;5.13;;
11064;SDS011;5585;52.530;7.320;2023-04-24T02:15:26;4.78;;;4.35;;
11064;SDS011;5585;52.530;7.320;2023-04-24T02:17:52;4.72;;;4.32;;
11064;SDS011;5585;52.530;7.320;2023-04-24T02:20:19;5.13;;;4.63;;
11064;SDS011;5585;52.530;7.320;2023-04-24T02:22:46;4.88;;;4.47;;
11064;SDS011;5585;52.530;7.320;2023-04-24T02:25:13;4.28;;;3.85;;
11064;SDS011;5585;52.530;7.320;2023-04-24T02:27:39;4.40;;;4.00;;
11064;SDS011;5585;52.530;7.320;2023-04-24T02:30:06;4.43;;;4.03;;
11064;SDS011;5585;52.530;7.320;2023-04-24T02:32:35;4.30;;;3.90;;
11064;SDS011;5585;52.530;7.320;2023-04-24T02:35:01;3.83;;;3.53;;
11064;SDS011;5585;52.530;7.320;2023-04-24T02:37:28;3.93;;;3.53;;
11064;SDS011;5585;52.530;7.320;2023-04-24T02:39:55;4.15;;;3.85;;
11064;SDS011;5585;52.530;7.320;2023-04-24T02:42:21;4.25;;;3.92;;
11064;SDS011;5585;52.530;7.320;2023-04-24T02:44:48;4.07;;;3.50;;
11064;SDS011;5585;52.530;7.320;2023-04-24T02:47:16;4.18;;;3.80;;
11064;SDS011;5585;52.530;7.320;2023-04-24T02:49:47;3.92;;;3.53;;
11064;SDS011;5585;52.530;7.320;2023-04-24T02:52:13;3.92;;;3.63;;
11064;SDS011;5585;52.530;7.320;2023-04-24T02:54:41;3.65;;;3.33;;
11064;SDS011;5585;52.530;7.320;2023-04-24T02:57:08;4.53;;;3.63;;
11064;SDS011;5585;52.530;7.320;2023-04-24T02:59:35;4.43;;;4.03;;
11064;SDS011;5585;52.530;7.320;2023-04-24T03:02:01;4.55;;;3.88;;
11064;SDS011;5585;52.530;7.320;2023-04-24T03:04:28;5.78;;;3.92;;
11064;SDS011;5585;52.530;7.320;2023-04-24T03:06:56;4.25;;;3.70;;
11064;SDS011;5585;52.530;7.320;2023-04-24T03:09:22;5.57;;;4.40;;
11064;SDS011;5585;52.530;7.320;2023-04-24T03:11:49;4.67;;;4.27;;
11064;SDS011;5585;52.530;7.320;2023-04-24T03:14:16;4.97;;;4.47;;
11064;SDS011;5585;52.530;7.320;2023-04-24T03:16:43;5.90;;;4.43;;
11064;SDS011;5585;52.530;7.320;2023-04-24T03:19:09;4.63;;;4.22;;
11064;SDS011;5585;52.530;7.320;2023-04-24T03:21:36;5.50;;;4.65;;
11064;SDS011;5585;52.530;7.320;2023-04-24T03:24:07;5.38;;;4.88;;
11064;SDS011;5585;52.530;7.320;2023-04-24T03:26:34;5.60;;;5.10;;
11064;SDS011;5585;52.530;7.320;2023-04-24T03:29:00;5.22;;;4.72;;
11064;SDS011;5585;52.530;7.320;2023-04-24T03:31:27;6.55;;;5.00;;
11064;SDS011;5585;52.530;7.320;2023-04-24T03:33:53;6.63;;;5.15;;
11064;SDS011;5585;52.530;7.320;2023-04-24T03:36:20;6.05;;;5.55;;
11064;SDS011;5585;52.530;7.320;2023-04-24T03:38:47;5.72;;;5.22;;
11064;SDS011;5585;52.530;7.320;2023-04-24T03:41:15;6.10;;;5.50;;
11064;SDS011;5585;52.530;7.320;2023-04-24T03:43:41;6.38;;;5.30;;
11064;SDS011;5585;52.530;7.320;2023-04-24T03:46:08;5.50;;;5.00;;
11064;SDS011;5585;52.530;7.320;2023-04-24T03:48:34;6.28;;;5.68;;
11064;SDS011;5585;52.530;7.320;2023-04-24T03:51:01;6.50;;;5.85;;
11064;SDS011;5585;52.530;7.320;2023-04-24T03:53:28;8.13;;;6.00;;
11064;SDS011;5585;52.530;7.320;2023-04-24T03:55:54;7.15;;;5.63;;
11064;SDS011;5585;52.530;7.320;2023-04-24T03:58:22;7.15;;;6.00;;
11064;SDS011;5585;52.530;7.320;2023-04-24T04:00:49;7.38;;;6.20;;
11064;SDS011;5585;52.530;7.320;2023-04-24T04:03:16;6.57;;;5.80;;
11064;SDS011;5585;52.530;7.320;2023-04-24T04:05:42;7.50;;;6.70;;
11064;SDS011;5585;52.530;7.320;2023-04-24T04:08:09;7.22;;;6.53;;
11064;SDS011;5585;52.530;7.320;2023-04-24T04:10:35;8.18;;;6.25;;
11064;SDS011;5585;52.530;7.320;2023-04-24T04:13:02;7.05;;;6.35;;
11064;SDS011;5585;52.530;7.320;2023-04-24T04:15:30;7.65;;;6.93;;
11064;SDS011;5585;52.530;7.320;2023-04-24T04:17:56;7.18;;;6.30;;
11064;SDS011;5585;52.530;7.320;2023-04-24T04:20:23;7.35;;;6.65;;
11064;SDS011;5585;52.530;7.320;2023-04-24T04:22:50;7.45;;;6.68;;
11064;SDS011;5585;52.530;7.320;2023-04-24T04:25:16;8.23;;;6.35;;
11064;SDS011;5585;52.530;7.320;2023-04-24T04:27:44;8.43;;;7.03;;
11064;SDS011;5585;52.530;7.320;2023-04-24T04:30:12;8.33;;;6.73;;
11064;SDS011;5585;52.530;7.320;2023-04-24T04:32:40;7.33;;;6.63;;
11064;SDS011;5585;52.530;7.320;2023-04-24T04:35:07;8.10;;;7.30;;
11064;SDS011;5585;52.530;7.320;2023-04-24T04:37:34;7.45;;;6.38;;
11064;SDS011;5585;52.530;7.320;2023-04-24T04:40:01;7.80;;;6.77;;
11064;SDS011;5585;52.530;7.320;2023-04-24T04:42:31;7.68;;;6.90;;
11064;SDS011;5585;52.530;7.320;2023-04-24T04:44:59;7.00;;;6.30;;
11064;SDS011;5585;52.530;7.320;2023-04-24T04:47:25;8.20;;;7.13;;
11064;SDS011;5585;52.530;7.320;2023-04-24T04:49:55;7.57;;;6.63;;
11064;SDS011;5585;52.530;7.320;2023-04-24T04:52:21;9.10;;;7.45;;
11064;SDS011;5585;52.530;7.320;2023-04-24T04:54:50;7.38;;;6.43;;
11064;SDS011;5585;52.530;7.320;2023-04-24T04:57:17;8.07;;;6.97;;
11064;SDS011;5585;52.530;7.320;2023-04-24T04:59:46;7.70;;;6.75;;
11064;SDS011;5585;52.530;7.320;2023-04-24T05:02:13;8.13;;;7.07;;
11064;SDS011;5585;52.530;7.320;2023-04-24T05:04:40;9.90;;;7.78;;
11064;SDS011;5585;52.530;7.320;2023-04-24T05:07:08;8.32;;;7.40;;
11064;SDS011;5585;52.530;7.320;2023-04-24T05:09:35;9.10;;;7.82;;
11064;SDS011;5585;52.530;7.320;2023-04-24T05:12:01;8.57;;;7.78;;
11064;SDS011;5585;52.530;7.320;2023-04-24T05:14:28;7.90;;;7.20;;
11064;SDS011;5585;52.530;7.320;2023-04-24T05:16:55;9.35;;;8.05;;
11064;SDS011;5585;52.530;7.320;2023-04-24T05:19:21;9.07;;;7.68;;
11064;SDS011;5585;52.530;7.320;2023-04-24T05:21:48;8.70;;;7.65;;
11064;SDS011;5585;52.530;7.320;2023-04-24T05:24:16;9.00;;;7.80;;
11064;SDS011;5585;52.530;7.320;2023-04-24T05:26:42;9.95;;;7.80;;
11064;SDS011;5585;52.530;7.320;2023-04-24T05:29:09;8.30;;;7.50;;
11064;SDS011;5585;52.530;7.320;2023-04-24T05:31:35;9.10;;;8.20;;
11064;SDS011;5585;52.530;7.320;2023-04-24T05:34:02;9.27;;;8.38;;
11064;SDS011;5585;52.530;7.320;2023-04-24T05:36:28;9.23;;;7.97;;
11064;SDS011;5585;52.530;7.320;2023-04-24T05:38:56;8.63;;;7.80;;
11064;SDS011;5585;52.530;7.320;2023-04-24T05:41:24;10.02;;;9.02;;
11064;SDS011;5585;52.530;7.320;2023-04-24T05:43:51;10.67;;;9.33;;
11064;SDS011;5585;52.530;7.320;2023-04-24T05:46:17;10.00;;;9.00;;
11064;SDS011;5585;52.530;7.320;2023-04-24T05:48:44;9.95;;;8.93;;
11064;SDS011;5585;52.530;7.320;2023-04-24T05:51:10;9.77;;;8.50;;
11064;SDS011;5585;52.530;7.320;2023-04-24T05:53:37;9.03;;;8.17;;
11064;SDS011;5585;52.530;7.320;2023-04-24T05:56:06;9.67;;;8.67;;
11064;SDS011;5585;52.530;7.320;2023-04-24T05:58:35;10.38;;;9.30;;
11064;SDS011;5585;52.530;7.320;2023-04-24T06:01:03;9.77;;;8.88;;
11064;SDS011;5585;52.530;7.320;2023-04-24T06:03:29;9.40;;;8.47;;
11064;SDS011;5585;52.530;7.320;2023-04-24T06:05:56;8.95;;;7.88;;
11064;SDS011;5585;52.530;7.320;2023-04-24T06:08:23;9.20;;;7.33;;
11064;SDS011;5585;52.530;7.320;2023-04-24T06:10:49;8.95;;;8.13;;
11064;SDS011;5585;52.530;7.320;2023-04-24T06:13:16;9.77;;;8.88;;
11064;SDS011;5585;52.530;7.320;2023-04-24T06:15:44;10.40;;;8.50;;
11064;SDS011;5585;52.530;7.320;2023-04-24T06:18:11;8.07;;;7.28;;
11064;SDS011;5585;52.530;7.320;2023-04-24T06:20:40;11.35;;;8.30;;
11064;SDS011;5585;52.530;7.320;2023-04-24T06:23:07;8.07;;;7.28;;
11064;SDS011;5585;52.530;7.320;2023-04-24T06:25:33;8.80;;;8.00;;
11064;SDS011;5585;52.530;7.320;2023-04-24T06:28:00;8.68;;;7.75;;
11064;SDS011;5585;52.530;7.320;2023-04-24T06:30:27;9.38;;;8.38;;
11064;SDS011;5585;52.530;7.320;2023-04-24T06:32:55;9.13;;;7.70;;
11064;SDS011;5585;52.530;7.320;2023-04-24T06:35:22;8.55;;;7.70;;
11064;SDS011;5585;52.530;7.320;2023-04-24T06:37:49;10.35;;;8.07;;
11064;SDS011;5585;52.530;7.320;2023-04-24T06:40:15;9.20;;;7.90;;
11064;SDS011;5585;52.530;7.320;2023-04-24T06:42:43;8.60;;;7.75;;
11064;SDS011;5585;52.530;7.320;2023-04-24T06:45:10;9.18;;;7.82;;
11064;SDS011;5585;52.530;7.320;2023-04-24T06:47:36;8.77;;;7.57;;
11064;SDS011;5585;52.530;7.320;2023-04-24T06:50:05;7.93;;;7.13;;
11064;SDS011;5585;52.530;7.320;2023-04-24T06:52:32;9.23;;;7.38;;
11064;SDS011;5585;52.530;7.320;2023-04-24T06:55:02;8.52;;;7.63;;
11064;SDS011;5585;52.530;7.320;2023-04-24T06:57:28;7.38;;;6.63;;
11064;SDS011;5585;52.530;7.320;2023-04-24T06:59:55;7.85;;;7.15;;
11064;SDS011;5585;52.530;7.320;2023-04-24T07:02:22;8.47;;;7.33;;
11064;SDS011;5585;52.530;7.320;2023-04-24T07:04:49;8.00;;;7.20;;
11064;SDS011;5585;52.530;7.320;2023-04-24T07:07:17;7.80;;;6.95;;
11064;SDS011;5585;52.530;7.320;2023-04-24T07:09:43;7.38;;;6.68;;
11064;SDS011;5585;52.530;7.320;2023-04-24T07:12:11;9.23;;;8.00;;
11064;SDS011;5585;52.530;7.320;2023-04-24T07:14:37;8.43;;;7.55;;
11064;SDS011;5585;52.530;7.320;2023-04-24T07:17:04;8.60;;;7.80;;
11064;SDS011;5585;52.530;7.320;2023-04-24T07:19:31;8.10;;;7.30;;
11064;SDS011;5585;52.530;7.320;2023-04-24T07:21:57;9.07;;;8.17;;
11064;SDS011;5585;52.530;7.320;2023-04-24T07:24:25;10.68;;;9.38;;
11064;SDS011;5585;52.530;7.320;2023-04-24T07:26:52;8.77;;;7.88;;
11064;SDS011;5585;52.530;7.320;2023-04-24T07:29:19;9.57;;;7.73;;
11064;SDS011;5585;52.530;7.320;2023-04-24T07:31:46;8.43;;;7.53;;
11064;SDS011;5585;52.530;7.320;2023-04-24T07:34:12;9.48;;;8.00;;
11064;SDS011;5585;52.530;7.320;2023-04-24T07:36:40;7.87;;;7.17;;
11064;SDS011;5585;52.530;7.320;2023-04-24T07:39:07;9.27;;;8.37;;
11064;SDS011;5585;52.530;7.320;2023-04-24T07:41:35;8.80;;;7.28;;
11064;SDS011;5585;52.530;7.320;2023-04-24T07:44:02;9.30;;;7.20;;
11064;SDS011;5585;52.530;7.320;2023-04-24T07:46:30;10.60;;;7.37;;
11064;SDS011;5585;52.530;7.320;2023-04-24T07:48:57;8.80;;;7.90;;
11064;SDS011;5585;52.530;7.320;2023-04-24T07:51:24;8.30;;;7.50;;
11064;SDS011;5585;52.530;7.320;2023-04-24T07:53:52;7.77;;;7.00;;
11064;SDS011;5585;52.530;7.320;2023-04-24T07:56:19;8.77;;;7.40;;
11064;SDS011;5585;52.530;7.320;2023-04-24T07:58:48;9.23;;;7.30;;
11064;SDS011;5585;52.530;7.320;2023-04-24T08:01:14;8.90;;;6.90;;
11064;SDS011;5585;52.530;7.320;2023-04-24T08:03:41;7.80;;;7.00;;
11064;SDS011;5585;52.530;7.320;2023-04-24T08:06:07;7.83;;;6.83;;
11064;SDS011;5585;52.530;7.320;2023-04-24T08:08:36;8.13;;;7.33;;
11064;SDS011;5585;52.530;7.320;2023-04-24T08:11:03;7.20;;;6.50;;
11064;SDS011;5585;52.530;7.320;2023-04-24T08:13:30;7.40;;;6.20;;
11064;SDS011;5585;52.530;7.320;2023-04-24T08:15:58;7.43;;;6.20;;
11064;SDS011;5585;52.530;7.320;2023-04-24T08:18:24;6.95;;;5.85;;
11064;SDS011;5585;52.530;7.320;2023-04-24T08:20:51;5.97;;;5.37;;
11064;SDS011;5585;52.530;7.320;2023-04-24T08:23:17;6.38;;;5.72;;
11064;SDS011;5585;52.530;7.320;2023-04-24T08:25:44;8.97;;;6.30;;
11064;SDS011;5585;52.530;7.320;2023-04-24T08:28:11;6.95;;;6.28;;
11064;SDS011;5585;52.530;7.320;2023-04-24T08:30:37;6.47;;;5.80;;
11064;SDS011;5585;52.530;7.320;2023-04-24T08:33:06;5.73;;;5.23;;
11064;SDS011;5585;52.530;7.320;2023-04-24T08:35:33;5.80;;;5.20;;
11064;SDS011;5585;52.530;7.320;2023-04-24T08:38:02;5.75;;;5.18;;
11064;SDS011;5585;52.530;7.320;2023-04-24T08:40:32;6.20;;;5.55;;
11064;SDS011;5585;52.530;7.320;2023-04-24T08:43:00;6.30;;;5.70;;
11064;SDS011;5585;52.530;7.320;2023-04-24T08:45:27;5.50;;;5.00;;
11064;SDS011;5585;52.530;7.320;2023-04-24T08:47:53;5.77;;;5.17;;
11064;SDS011;5585;52.530;7.320;2023-04-24T08:50:22;5.70;;;5.10;;
11064;SDS011;5585;52.530;7.320;2023-04-24T08:52:51;5.50;;;5.00;;
11064;SDS011;5585;52.530;7.320;2023-04-24T08:55:19;5.20;;;4.70;;
11064;SDS011;5585;52.530;7.320;2023-04-24T08:57:49;5.43;;;4.93;;
11064;SDS011;5585;52.530;7.320;2023-04-24T09:00:17;5.47;;;4.97;;
11064;SDS011;5585;52.530;7.320;2023-04-24T09:02:45;4.80;;;4.40;;
11064;SDS011;5585;52.530;7.320;2023-04-24T09:05:13;5.10;;;4.60;;
11064;SDS011;5585;52.530;7.320;2023-04-24T09:07:42;3.97;;;3.63;;
11064;SDS011;5585;52.530;7.320;2023-04-24T09:10:17;4.57;;;4.17;;
11064;SDS011;5585;52.530;7.320;2023-04-24T09:12:46;4.13;;;3.73;;
11064;SDS011;5585;52.530;7.320;2023-04-24T09:15:14;4.03;;;3.73;;
11064;SDS011;5585;52.530;7.320;2023-04-24T09:17:40;3.90;;;3.50;;
11064;SDS011;5585;52.530;7.320;2023-04-24T09:20:07;3.70;;;3.40;;
11064;SDS011;5585;52.530;7.320;2023-04-24T09:22:34;4.20;;;3.80;;
11064;SDS011;5585;52.530;7.320;2023-04-24T09:25:06;4.47;;;3.77;;
11064;SDS011;5585;52.530;7.320;2023-04-24T09:27:34;5.17;;;4.00;;
11064;SDS011;5585;52.530;7.320;2023-04-24T09:30:01;3.73;;;3.30;;
11064;SDS011;5585;52.530;7.320;2023-04-24T09:32:33;4.32;;;3.33;;
11064;SDS011;5585;52.530;7.320;2023-04-24T09:35:07;3.70;;;3.40;;
11064;SDS011;5585;52.530;7.320;2023-04-24T09:37:37;3.17;;;2.87;;
11064;SDS011;5585;52.530;7.320;2023-04-24T09:40:08;2.83;;;2.47;;
11064;SDS011;5585;52.530;7.320;2023-04-24T09:42:35;2.30;;;2.10;;
11064;SDS011;5585;52.530;7.320;2023-04-24T09:45:01;2.57;;;1.87;;
11064;SDS011;5585;52.530;7.320;2023-04-24T09:47:30;2.10;;;1.63;;
11064;SDS011;5585;52.530;7.320;2023-04-24T09:50:08;1.70;;;1.50;;
11064;SDS011;5585;52.530;7.320;2023-04-24T09:52:35;2.23;;;1.63;;
11064;SDS011;5585;52.530;7.320;2023-04-24T09:55:01;1.90;;;1.70;;
11064;SDS011;5585;52.530;7.320;2023-04-24T09:57:29;2.50;;;2.20;;
11064;SDS011;5585;52.530;7.320;2023-04-24T09:59:57;3.03;;;2.10;;
11064;SDS011;5585;52.530;7.320;2023-04-24T10:02:24;3.50;;;2.33;;
11064;SDS011;5585;52.530;7.320;2023-04-24T10:04:54;4.00;;;2.73;;
11064;SDS011;5585;52.530;7.320;2023-04-24T10:07:21;4.30;;;3.27;;
11064;SDS011;5585;52.530;7.320;2023-04-24T10:09:47;3.43;;;3.00;;
11064;SDS011;5585;52.530;7.320;2023-04-24T10:12:14;3.37;;;3.07;;
11064;SDS011;5585;52.530;7.320;2023-04-24T10:14:42;4.40;;;3.00;;
11064;SDS011;5585;52.530;7.320;2023-04-24T10:17:10;5.07;;;3.83;;
11064;SDS011;5585;52.530;7.320;2023-04-24T10:19:37;3.90;;;3.50;;
11064;SDS011;5585;52.530;7.320;2023-04-24T10:22:04;6.87;;;4.77;;
11064;SDS011;5585;52.530;7.320;2023-04-24T10:24:31;8.07;;;6.00;;
11064;SDS011;5585;52.530;7.320;2023-04-24T10:27:00;9.27;;;6.70;;
11064;SDS011;5585;52.530;7.320;2023-04-24T10:29:27;9.00;;;7.63;;
11064;SDS011;5585;52.530;7.320;2023-04-24T10:31:57;12.47;;;8.63;;
11064;SDS011;5585;52.530;7.320;2023-04-24T10:34:23;13.20;;;9.77;;
11064;SDS011;5585;52.530;7.320;2023-04-24T10:36:51;13.80;;;9.73;;
11064;SDS011;5585;52.530;7.320;2023-04-24T10:39:18;12.47;;;9.67;;
11064;SDS011;5585;52.530;7.320;2023-04-24T10:41:46;13.37;;;10.07;;
11064;SDS011;5585;52.530;7.320;2023-04-24T10:44:15;9.93;;;8.47;;
11064;SDS011;5585;52.530;7.320;2023-04-24T10:46:42;11.00;;;8.70;;
11064;SDS011;5585;52.530;7.320;2023-04-24T10:49:11;11.57;;;9.37;;
11064;SDS011;5585;52.530;7.320;2023-04-24T10:51:47;10.97;;;9.17;;
11064;SDS011;5585;52.530;7.320;2023-04-24T10:54:23;8.80;;;7.90;;
11064;SDS011;5585;52.530;7.320;2023-04-24T10:56:50;11.03;;;8.33;;
11064;SDS011;5585;52.530;7.320;2023-04-24T10:59:23;11.07;;;8.97;;
11064;SDS011;5585;52.530;7.320;2023-04-24T11:01:52;9.23;;;8.07;;
11064;SDS011;5585;52.530;7.320;2023-04-24T11:04:28;9.17;;;7.50;;
11064;SDS011;5585;52.530;7.320;2023-04-24T11:06:54;10.17;;;7.03;;
11064;SDS011;5585;52.530;7.320;2023-04-24T11:09:21;11.37;;;7.40;;
11064;SDS011;5585;52.530;7.320;2023-04-24T11:11:48;8.33;;;6.67;;
11064;SDS011;5585;52.530;7.320;2023-04-24T11:14:15;7.90;;;6.13;;
11064;SDS011;5585;52.530;7.320;2023-04-24T11:16:42;7.60;;;5.87;;
11064;SDS011;5585;52.530;7.320;2023-04-24T11:19:10;10.50;;;6.27;;
11064;SDS011;5585;52.530;7.320;2023-04-24T11:21:47;9.17;;;6.20;;
11064;SDS011;5585;52.530;7.320;2023-04-24T11:24:24;7.73;;;5.43;;
11064;SDS011;5585;52.530;7.320;2023-04-24T11:26:51;9.77;;;5.67;;
11064;SDS011;5585;52.530;7.320;2023-04-24T11:29:22;9.97;;;5.93;;
11064;SDS011;5585;52.530;7.320;2023-04-24T11:31:48;10.07;;;5.43;;
11064;SDS011;5585;52.530;7.320;2023-04-24T11:34:17;8.50;;;4.00;;
11064;SDS011;5585;52.530;7.320;2023-04-24T11:36:45;7.30;;;3.90;;
11064;SDS011;5585;52.530;7.320;2023-04-24T11:39:12;8.77;;;3.50;;
11064;SDS011;5585;52.530;7.320;2023-04-24T11:41:39;6.03;;;3.30;;
11064;SDS011;5585;52.530;7.320;2023-04-24T11:44:06;5.80;;;3.53;;
11064;SDS011;5585;52.530;7.320;2023-04-24T11:46:33;6.27;;;3.10;;
11064;SDS011;5585;52.530;7.320;2023-04-24T11:49:00;5.27;;;2.80;;
11064;SDS011;5585;52.530;7.320;2023-04-24T11:51:27;6.00;;;2.60;;
11064;SDS011;5585;52.530;7.320;2023-04-24T11:53:55;7.33;;;2.57;;
11064;SDS011;5585;52.530;7.320;2023-04-24T11:56:22;5.07;;;2.40;;
11064;SDS011;5585;52.530;7.320;2023-04-24T11:58:50;5.60;;;2.37;;
11064;SDS011;5585;52.530;7.320;2023-04-24T12:01:18;8.23;;;2.80;;
11064;SDS011;5585;52.530;7.320;2023-04-24T12:03:46;3.63;;;2.33;;
11064;SDS011;5585;52.530;7.320;2023-04-24T12:06:13;6.17;;;2.80;;
11064;SDS011;5585;52.530;7.320;2023-04-24T12:08:40;4.63;;;3.03;;
11064;SDS011;5585;52.530;7.320;2023-04-24T12:11:08;7.40;;;3.17;;
11064;SDS011;5585;52.530;7.320;2023-04-24T12:13:35;5.13;;;2.60;;
11064;SDS011;5585;52.530;7.320;2023-04-24T12:16:02;9.03;;;2.77;;
11064;SDS011;5585;52.530;7.320;2023-04-24T12:18:29;5.03;;;2.90;;
11064;SDS011;5585;52.530;7.320;2023-04-24T12:23:37;7.97;;;3.17;;
11064;SDS011;5585;52.530;7.320;2023-04-24T12:26:04;6.27;;;3.00;;
11064;SDS011;5585;52.530;7.320;2023-04-24T12:28:35;7.90;;;2.83;;
11064;SDS011;5585;52.530;7.320;2023-04-24T12:31:02;5.23;;;2.60;;
11064;SDS011;5585;52.530;7.320;2023-04-24T12:33:32;4.50;;;2.50;;
11064;SDS011;5585;52.530;7.320;2023-04-24T12:35:59;6.37;;;3.17;;
11064;SDS011;5585;52.530;7.320;2023-04-24T12:38:27;6.37;;;2.73;;
11064;SDS011;5585;52.530;7.320;2023-04-24T12:41:03;6.43;;;3.13;;
11064;SDS011;5585;52.530;7.320;2023-04-24T12:43:30;6.20;;;2.90;;
11064;SDS011;5585;52.530;7.320;2023-04-24T12:45:58;4.83;;;2.30;;
11064;SDS011;5585;52.530;7.320;2023-04-24T12:48:25;6.00;;;2.47;;
11064;SDS011;5585;52.530;7.320;2023-04-24T12:50:51;4.53;;;2.87;;
11064;SDS011;5585;52.530;7.320;2023-04-24T12:53:18;4.97;;;2.30;;
11064;SDS011;5585;52.530;7.320;2023-04-24T12:55:45;4.67;;;2.50;;
11064;SDS011;5585;52.530;7.320;2023-04-24T12:58:17;3.33;;;1.90;;
11064;SDS011;5585;52.530;7.320;2023-04-24T13:00:45;3.07;;;1.70;;
11064;SDS011;5585;52.530;7.320;2023-04-24T13:03:13;3.33;;;1.87;;
11064;SDS011;5585;52.530;7.320;2023-04-24T13:05:41;3.90;;;2.10;;
11064;SDS011;5585;52.530;7.320;2023-04-24T13:08:08;5.53;;;1.83;;
11064;SDS011;5585;52.530;7.320;2023-04-24T13:10:35;4.57;;;1.70;;
11064;SDS011;5585;52.530;7.320;2023-04-24T13:13:02;4.77;;;1.60;;
11064;SDS011;5585;52.530;7.320;2023-04-24T13:15:28;6.65;;;1.80;;
11064;SDS011;5585;52.530;7.320;2023-04-24T13:17:55;3.80;;;1.80;;
11064;SDS011;5585;52.530;7.320;2023-04-24T13:20:23;5.47;;;1.70;;
11064;SDS011;5585;52.530;7.320;2023-04-24T13:22:50;6.27;;;1.83;;
11064;SDS011;5585;52.530;7.320;2023-04-24T13:25:17;7.13;;;1.60;;
11064;SDS011;5585;52.530;7.320;2023-04-24T13:27:45;5.07;;;1.23;;
11064;SDS011;5585;52.530;7.320;2023-04-24T13:30:12;3.77;;;1.50;;
11064;SDS011;5585;52.530;7.320;2023-04-24T13:32:39;4.33;;;1.17;;
11064;SDS011;5585;52.530;7.320;2023-04-24T13:35:06;4.80;;;1.37;;
11064;SDS011;5585;52.530;7.320;2023-04-24T13:37:34;4.77;;;1.60;;
11064;SDS011;5585;52.530;7.320;2023-04-24T13:40:01;4.53;;;1.27;;
11064;SDS011;5585;52.530;7.320;2023-04-24T13:42:29;3.83;;;1.47;;
11064;SDS011;5585;52.530;7.320;2023-04-24T13:44:55;3.10;;;1.27;;
11064;SDS011;5585;52.530;7.320;2023-04-24T13:47:22;3.47;;;1.33;;
11064;SDS011;5585;52.530;7.320;2023-04-24T13:49:49;3.05;;;1.40;;
11064;SDS011;5585;52.530;7.320;2023-04-24T13:52:15;3.93;;;1.13;;
11064;SDS011;5585;52.530;7.320;2023-04-24T13:54:43;4.40;;;1.17;;
11064;SDS011;5585;52.530;7.320;2023-04-24T13:57:10;3.37;;;1.17;;
11064;SDS011;5585;52.530;7.320;2023-04-24T13:59:36;4.40;;;1.00;;
11064;SDS011;5585;52.530;7.320;2023-04-24T14:02:03;3.17;;;1.13;;
11064;SDS011;5585;52.530;7.320;2023-04-24T14:04:30;1.80;;;0.90;;
11064;SDS011;5585;52.530;7.320;2023-04-24T14:06:56;4.90;;;1.27;;
11064;SDS011;5585;52.530;7.320;2023-04-24T14:09:23;2.77;;;1.13;;
11064;SDS011;5585;52.530;7.320;2023-04-24T14:11:51;2.27;;;1.10;;
11064;SDS011;5585;52.530;7.320;2023-04-24T14:14:18;4.50;;;1.00;;
11064;SDS011;5585;52.530;7.320;2023-04-24T14:16:44;4.07;;;1.00;;
11064;SDS011;5585;52.530;7.320;2023-04-24T14:19:11;1.73;;;0.70;;
11064;SDS011;5585;52.530;7.320;2023-04-24T14:21:37;2.63;;;0.90;;
11064;SDS011;5585;52.530;7.320;2023-04-24T14:24:04;1.93;;;0.90;;
11064;SDS011;5585;52.530;7.320;2023-04-24T14:26:31;2.73;;;1.00;;
11064;SDS011;5585;52.530;7.320;2023-04-24T14:28:59;2.93;;;0.80;;
11064;SDS011;5585;52.530;7.320;2023-04-24T14:31:25;6.83;;;1.47;;
11064;SDS011;5585;52.530;7.320;2023-04-24T14:33:52;4.03;;;1.03;;
11064;SDS011;5585;52.530;7.320;2023-04-24T14:36:19;4.03;;;1.30;;
11064;SDS011;5585;52.530;7.320;2023-04-24T14:38:45;3.43;;;1.10;;
11064;SDS011;5585;52.530;7.320;2023-04-24T14:41:12;2.43;;;0.90;;
11064;SDS011;5585;52.530;7.320;2023-04-24T14:43:39;4.63;;;1.30;;
11064;SDS011;5585;52.530;7.320;2023-04-24T14:46:07;2.77;;;1.13;;
11064;SDS011;5585;52.530;7.320;2023-04-24T14:48:33;3.10;;;1.00;;
11064;SDS011;5585;52.530;7.320;2023-04-24T14:51:00;3.40;;;0.97;;
11064;SDS011;5585;52.530;7.320;2023-04-24T14:53:26;4.37;;;1.20;;
11064;SDS011;5585;52.530;7.320;2023-04-24T14:55:53;4.03;;;1.80;;
11064;SDS011;5585;52.530;7.320;2023-04-24T14:58:19;3.70;;;1.10;;
11064;SDS011;5585;52.530;7.320;2023-04-24T15:00:46;2.47;;;1.17;;
11064;SDS011;5585;52.530;7.320;2023-04-24T15:03:16;1.97;;;1.00;;